createdAt,value
2018-02-08T00:00:32.629Z,99.87
2018-02-08T00:03:00.992Z,113.10
2018-02-08T00:05:29.385Z,113.20
2018-02-08T00:07:57.723Z,107.70
2018-02-08T00:10:26.060Z,109.90
2018-02-08T00:12:54.464Z,101.63
2018-02-08T00:15:22.800Z,100.27
2018-02-08T00:17:51.158Z,120.03
2018-02-08T00:20:19.494Z,112.90
2018-02-08T00:22:47.845Z,105.23
2018-02-08T00:25:16.183Z,126.20
2018-02-08T00:27:44.511Z,100.37
2018-02-08T00:30:12.876Z,111.53
2018-02-08T00:32:41.222Z,113.53
2018-02-08T00:35:09.568Z,113.90
2018-02-08T00:37:37.923Z,118.13
2018-02-08T00:40:06.247Z,114.03
2018-02-08T00:42:34.630Z,120.50
2018-02-08T00:45:03.091Z,111.60
2018-02-08T00:47:31.427Z,121.77
2018-02-08T00:49:59.789Z,114.23
2018-02-08T00:52:28.153Z,117.33
2018-02-08T00:54:56.485Z,133.57
2018-02-08T00:57:24.835Z,122.83
2018-02-08T00:59:53.202Z,123.60
2018-02-08T01:02:21.937Z,134.93
2018-02-08T01:04:50.296Z,119.10
2018-02-08T01:07:19.680Z,121.33
2018-02-08T01:09:48.054Z,110.60
2018-02-08T01:12:18.275Z,106.83
2018-02-08T01:14:46.840Z,119.83
2018-02-08T01:17:15.182Z,122.97
2018-02-08T01:19:43.520Z,123.50
2018-02-08T01:22:11.880Z,125.20
2018-02-08T01:24:40.249Z,135.60
2018-02-08T01:27:13.395Z,145.17
2018-02-08T01:29:41.746Z,138.50
2018-02-08T01:32:10.108Z,126.47
2018-02-08T01:34:38.454Z,126.03
2018-02-08T01:37:06.809Z,121.80
2018-02-08T01:39:35.184Z,110.77
2018-02-08T01:42:03.552Z,142.37
2018-02-08T01:44:31.912Z,136.43
2018-02-08T01:47:01.225Z,127.23
2018-02-08T01:49:41.316Z,120.13
2018-02-08T01:52:09.646Z,145.60
2018-02-08T01:54:37.996Z,132.07
2018-02-08T01:57:06.323Z,135.10
2018-02-08T01:59:34.691Z,136.53
2018-02-08T02:02:03.044Z,120.27
2018-02-08T02:04:31.376Z,139.03
2018-02-08T02:06:59.928Z,125.23
2018-02-08T02:09:28.531Z,153.50
2018-02-08T02:11:56.897Z,122.13
2018-02-08T02:14:25.217Z,139.03
2018-02-08T02:16:53.555Z,104.23
2018-02-08T02:19:21.917Z,140.30
2018-02-08T02:21:50.260Z,127.07
2018-02-08T02:24:18.616Z,135.47
2018-02-08T02:26:46.948Z,141.70
2018-02-08T02:29:15.317Z,133.87
2018-02-08T02:31:43.802Z,136.37
2018-02-08T02:34:12.140Z,137.07
2018-02-08T02:36:40.495Z,123.77
2018-02-08T02:39:08.875Z,132.57
2018-02-08T02:41:37.219Z,134.07
2018-02-08T02:44:05.587Z,135.70
2018-02-08T02:46:33.972Z,156.50
2018-02-08T02:49:02.311Z,135.33
2018-02-08T02:51:30.658Z,146.67
2018-02-08T02:53:59.011Z,129.03
2018-02-08T02:56:27.343Z,144.97
2018-02-08T02:58:55.727Z,152.40
2018-02-08T03:01:24.112Z,141.20
2018-02-08T03:03:52.419Z,124.30
2018-02-08T03:06:20.746Z,144.23
2018-02-08T03:08:49.154Z,130.30
2018-02-08T03:11:17.493Z,139.40
2018-02-08T03:13:45.849Z,123.70
2018-02-08T03:16:14.269Z,132.73
2018-02-08T03:18:42.599Z,127.27
2018-02-08T03:21:10.955Z,126.70
2018-02-08T03:23:39.276Z,155.20
2018-02-08T03:26:07.639Z,134.97
2018-02-08T03:28:36.014Z,131.50
2018-02-08T03:31:04.853Z,128.00
2018-02-08T03:33:33.194Z,127.47
2018-02-08T03:36:01.639Z,126.47
2018-02-08T03:38:29.992Z,132.83
2018-02-08T03:40:58.307Z,143.83
2018-02-08T03:43:26.663Z,138.97
2018-02-08T03:45:54.990Z,133.50
2018-02-08T03:48:23.329Z,127.67
2018-02-08T03:50:51.670Z,140.43
2018-02-08T03:53:20.023Z,116.83
2018-02-08T03:55:48.381Z,140.70
2018-02-08T03:58:16.699Z,123.80
2018-02-08T04:00:45.521Z,142.43
2018-02-08T04:03:13.868Z,138.47
2018-02-08T04:05:42.194Z,130.30
2018-02-08T04:08:10.548Z,118.37
2018-02-08T04:10:38.871Z,127.73
2018-02-08T04:13:07.232Z,149.67
2018-02-08T04:15:35.582Z,136.10
2018-02-08T04:18:03.932Z,117.40
2018-02-08T04:20:32.284Z,145.47
2018-02-08T04:23:00.645Z,124.83
2018-02-08T04:25:28.967Z,146.50
2018-02-08T04:27:57.343Z,160.93
2018-02-08T04:30:25.671Z,129.07
2018-02-08T04:32:54.023Z,142.33
2018-02-08T04:35:22.379Z,143.37
2018-02-08T04:37:50.700Z,144.50
2018-02-08T04:40:30.866Z,136.10
2018-02-08T04:43:10.954Z,132.60
2018-02-08T04:45:51.108Z,134.70
2018-02-08T04:48:19.443Z,123.33
2018-02-08T04:50:47.791Z,133.17
2018-02-08T04:53:16.127Z,127.70
2018-02-08T04:55:44.457Z,140.93
2018-02-08T04:58:12.811Z,133.07
2018-02-08T05:00:41.205Z,136.23
2018-02-08T05:03:09.559Z,131.73
2018-02-08T05:05:37.891Z,133.60
2018-02-08T05:08:06.311Z,155.87
2018-02-08T05:10:34.643Z,138.80
2018-02-08T05:13:02.996Z,138.97
2018-02-08T05:15:31.335Z,133.40
2018-02-08T05:17:59.687Z,134.20
2018-02-08T05:20:28.030Z,128.87
2018-02-08T05:22:56.375Z,128.03
2018-02-08T05:25:24.745Z,140.80
2018-02-08T05:27:53.081Z,131.90
2018-02-08T05:30:21.433Z,120.40
2018-02-08T05:32:49.751Z,122.07
2018-02-08T05:35:18.089Z,141.33
2018-02-08T05:37:46.447Z,124.20
2018-02-08T05:40:14.793Z,138.97
2018-02-08T05:42:43.142Z,135.43
2018-02-08T05:45:11.499Z,150.07
2018-02-08T05:47:39.865Z,144.87
2018-02-08T05:50:08.281Z,152.07
2018-02-08T05:52:36.584Z,140.13
2018-02-08T05:55:04.925Z,140.40
2018-02-08T05:57:33.285Z,136.77
2018-02-08T06:00:01.679Z,123.43
2018-02-08T06:02:30.073Z,130.70
2018-02-08T06:04:58.401Z,155.33
2018-02-08T06:07:26.765Z,140.90
2018-02-08T06:09:55.100Z,130.17
2018-02-08T06:12:23.459Z,151.87
2018-02-08T06:14:51.831Z,142.03
2018-02-08T06:17:20.759Z,128.40
2018-02-08T06:19:49.101Z,134.63
2018-02-08T06:22:18.509Z,140.33
2018-02-08T06:24:46.898Z,137.60
2018-02-08T06:27:15.384Z,142.63
2018-02-08T06:29:43.816Z,142.73
2018-02-08T06:32:12.334Z,119.80
2018-02-08T06:34:40.707Z,159.23
2018-02-08T06:37:09.047Z,151.97
2018-02-08T06:39:37.490Z,152.37
2018-02-08T06:42:05.844Z,138.60
2018-02-08T06:44:34.351Z,133.03
2018-02-08T06:47:02.751Z,150.00
2018-02-08T06:49:31.124Z,157.00
2018-02-08T06:51:59.466Z,125.53
2018-02-08T06:54:27.832Z,142.53
2018-02-08T06:56:56.177Z,138.33
2018-02-08T06:59:25.500Z,157.33
2018-02-08T07:01:53.962Z,146.07
2018-02-08T07:04:22.420Z,154.90
2018-02-08T07:06:50.778Z,145.20
2018-02-08T07:09:19.162Z,145.50
2018-02-08T07:11:47.542Z,142.03
2018-02-08T07:14:15.954Z,137.70
2018-02-08T07:16:44.297Z,129.50
2018-02-08T07:19:12.775Z,149.47
2018-02-08T07:21:41.179Z,141.93
2018-02-08T07:24:09.524Z,141.50
2018-02-08T07:26:37.880Z,152.33
2018-02-08T07:29:06.371Z,162.83
2018-02-08T07:31:34.830Z,157.10
2018-02-08T07:34:03.221Z,148.90
2018-02-08T07:39:04.419Z,141.60
2018-02-08T07:41:32.782Z,165.90
2018-02-08T07:44:01.960Z,142.37
2018-02-08T07:46:30.288Z,156.37
2018-02-08T07:48:58.836Z,147.50
2018-02-08T07:51:27.181Z,151.87
2018-02-08T07:53:55.563Z,155.53
2018-02-08T07:56:23.927Z,151.87
2018-02-08T07:58:58.666Z,181.80
2018-02-08T08:01:27.422Z,183.47
2018-02-08T08:03:55.774Z,149.53
2018-02-08T08:06:24.212Z,137.97
2018-02-08T08:08:52.711Z,140.83
2018-02-08T08:11:21.119Z,157.40
2018-02-08T08:13:50.190Z,167.23
2018-02-08T08:16:18.572Z,139.90
2018-02-08T08:18:46.936Z,145.23
2018-02-08T08:21:15.258Z,168.43
2018-02-08T08:23:43.721Z,126.07
2018-02-08T08:26:12.251Z,152.73
2018-02-08T08:28:40.925Z,146.00
2018-02-08T08:31:09.422Z,154.83
2018-02-08T08:33:38.149Z,141.77
2018-02-08T08:36:06.500Z,145.07
2018-02-08T08:38:34.861Z,183.13
2018-02-08T08:41:03.264Z,157.83
2018-02-08T08:43:31.834Z,153.63
2018-02-08T08:46:00.651Z,146.60
2018-02-08T08:48:29.008Z,143.97
2018-02-08T08:50:57.381Z,163.60
2018-02-08T08:53:25.913Z,154.17
2018-02-08T08:55:54.604Z,138.33
2018-02-08T08:58:23.200Z,159.30
2018-02-08T09:00:52.639Z,142.47
2018-02-08T09:03:22.134Z,138.20
2018-02-08T09:05:50.484Z,151.17
2018-02-08T09:08:18.864Z,148.73
2018-02-08T09:10:47.564Z,150.50
2018-02-08T09:13:15.894Z,144.50
2018-02-08T09:15:44.239Z,146.20
2018-02-08T09:18:13.478Z,139.00
2018-02-08T09:20:41.890Z,141.93
2018-02-08T09:23:10.247Z,148.37
2018-02-08T09:25:38.638Z,165.37
2018-02-08T09:28:06.997Z,147.50
2018-02-08T09:30:35.694Z,146.43
2018-02-08T09:33:04.052Z,122.33
2018-02-08T09:35:32.434Z,130.57
2018-02-08T09:38:00.917Z,138.83
2018-02-08T09:40:29.274Z,138.47
2018-02-08T09:42:57.660Z,155.10
2018-02-08T09:45:25.999Z,150.03
2018-02-08T09:47:54.443Z,150.60
2018-02-08T09:50:22.789Z,159.40
2018-02-08T09:52:51.362Z,143.40
2018-02-08T09:55:19.711Z,156.97
2018-02-08T09:57:48.075Z,148.00
2018-02-08T10:00:16.428Z,137.43
2018-02-08T10:05:17.491Z,138.73
2018-02-08T10:07:46.269Z,144.00
2018-02-08T10:10:14.732Z,135.53
2018-02-08T10:12:43.068Z,131.37
2018-02-08T10:15:11.399Z,148.07
2018-02-08T10:17:40.469Z,132.10
2018-02-08T10:20:09.025Z,141.50
2018-02-08T10:22:38.801Z,139.13
2018-02-08T10:25:07.993Z,139.37
2018-02-08T10:27:36.426Z,121.77
2018-02-08T10:30:04.785Z,121.87
2018-02-08T10:32:33.825Z,132.90
2018-02-08T10:35:02.427Z,125.23
2018-02-08T10:37:30.756Z,129.47
2018-02-08T10:39:59.115Z,140.07
2018-02-08T10:42:27.456Z,136.00
2018-02-08T10:44:55.828Z,133.33
2018-02-08T10:47:24.231Z,139.00
2018-02-08T10:49:52.592Z,142.90
2018-02-08T10:52:21.030Z,140.77
2018-02-08T10:54:49.343Z,132.77
2018-02-08T10:57:17.774Z,130.00
2018-02-08T10:59:46.233Z,128.30
2018-02-08T11:02:14.573Z,153.27
2018-02-08T11:07:16.316Z,146.30
2018-02-08T11:09:44.824Z,139.30
2018-02-08T11:12:13.801Z,133.43
2018-02-08T11:14:42.152Z,135.40
2018-02-08T11:17:10.486Z,133.67
2018-02-08T11:19:38.917Z,125.37
2018-02-08T11:22:07.306Z,134.13
2018-02-08T11:24:35.587Z,137.43
2018-02-08T11:27:03.970Z,143.47
2018-02-08T11:29:32.387Z,153.13
2018-02-08T11:32:00.761Z,143.73
2018-02-08T11:34:29.092Z,119.43
2018-02-08T11:36:57.429Z,141.77
2018-02-08T11:39:25.777Z,131.43
2018-02-08T11:41:54.113Z,147.40
2018-02-08T11:44:22.455Z,133.83
2018-02-08T11:46:51.100Z,145.07
2018-02-08T11:49:21.413Z,132.40
2018-02-08T11:51:50.632Z,145.70
2018-02-08T11:54:18.982Z,136.10
2018-02-08T11:56:47.347Z,143.07
2018-02-08T11:59:15.696Z,133.07
2018-02-08T12:01:44.185Z,126.83
2018-02-08T12:04:12.582Z,134.37
2018-02-08T12:06:41.712Z,139.57
2018-02-08T12:09:10.620Z,138.67
2018-02-08T12:11:39.802Z,130.73
2018-02-08T12:14:09.179Z,119.50
2018-02-08T12:16:39.425Z,141.50
2018-02-08T12:19:07.778Z,135.57
2018-02-08T12:21:36.435Z,138.70
2018-02-08T12:24:04.929Z,127.10
2018-02-08T12:26:37.061Z,136.90
2018-02-08T12:29:05.580Z,129.53
2018-02-08T12:31:33.963Z,140.30
2018-02-08T12:34:02.301Z,142.30
2018-02-08T12:36:31.530Z,138.60
2018-02-08T12:39:00.018Z,154.53
2018-02-08T12:41:28.493Z,129.27
2018-02-08T12:43:56.920Z,146.17
2018-02-08T12:46:25.735Z,159.87
2018-02-08T12:48:54.405Z,134.77
2018-02-08T12:51:24.188Z,129.30
2018-02-08T12:53:52.627Z,145.87
2018-02-08T12:56:21.043Z,128.77
2018-02-08T12:58:49.516Z,139.33
2018-02-08T13:01:17.998Z,133.33
2018-02-08T13:03:46.391Z,134.97
2018-02-08T13:06:14.895Z,136.53
2018-02-08T13:08:44.176Z,134.53
2018-02-08T13:11:12.524Z,144.07
2018-02-08T13:13:45.506Z,136.40
2018-02-08T13:16:13.852Z,142.93
2018-02-08T13:18:42.415Z,132.80
2018-02-08T13:21:10.744Z,109.90
2018-02-08T13:23:39.082Z,119.33
2018-02-08T13:26:07.560Z,131.70
2018-02-08T13:28:36.069Z,129.67
2018-02-08T13:31:04.409Z,120.40
2018-02-08T13:33:32.765Z,122.90
2018-02-08T13:36:02.175Z,111.07
2018-02-08T13:38:30.633Z,128.47
2018-02-08T13:40:59.093Z,123.93
2018-02-08T13:43:27.419Z,132.27
2018-02-08T13:45:55.788Z,128.03
2018-02-08T13:48:24.895Z,112.77
2018-02-08T13:54:15.369Z,111.93
2018-02-08T13:56:49.495Z,131.63
2018-02-08T14:02:32.746Z,125.90
2018-02-08T14:05:01.324Z,138.67
2018-02-08T14:07:30.553Z,106.17
2018-02-08T14:09:58.895Z,122.17
2018-02-08T14:12:27.243Z,120.50
2018-02-08T14:14:55.576Z,117.27
2018-02-08T14:17:24.259Z,121.83
2018-02-08T14:19:52.633Z,112.90
2018-02-08T14:22:21.165Z,120.73
2018-02-08T14:24:49.499Z,133.43
2018-02-08T14:27:18.381Z,135.10
2018-02-08T14:29:46.859Z,122.63
2018-02-08T14:32:15.294Z,109.77
2018-02-08T14:37:16.290Z,126.93
2018-02-08T14:39:45.116Z,119.40
2018-02-08T14:42:13.449Z,125.10
2018-02-08T14:44:42.348Z,124.73
2018-02-08T14:47:10.657Z,143.63
2018-02-08T14:49:39.019Z,137.40
2018-02-08T14:52:07.394Z,132.73
2018-02-08T14:54:35.737Z,132.73
2018-02-08T14:57:04.613Z,148.07
2018-02-08T14:59:33.000Z,140.33
2018-02-08T15:02:01.603Z,133.73
2018-02-08T15:04:30.187Z,122.97
2018-02-08T15:06:58.532Z,127.53
2018-02-08T15:09:26.918Z,127.70
2018-02-08T15:11:55.306Z,132.40
2018-02-08T15:14:23.601Z,154.30
2018-02-08T15:16:52.509Z,154.90
2018-02-08T15:19:20.865Z,132.00
2018-02-08T15:24:21.739Z,145.07
2018-02-08T15:26:51.412Z,114.97
2018-02-08T15:29:19.807Z,134.47
2018-02-08T15:31:48.129Z,158.00
2018-02-08T15:34:16.734Z,132.20
2018-02-08T15:36:45.527Z,151.27
2018-02-08T15:39:13.860Z,149.57
2018-02-08T15:41:42.288Z,139.43
2018-02-08T15:44:10.697Z,142.40
2018-02-08T15:46:39.179Z,137.83
2018-02-08T15:49:07.520Z,147.63
2018-02-08T15:51:35.888Z,141.33
2018-02-08T15:54:04.246Z,135.37
2018-02-08T15:56:33.614Z,123.03
2018-02-08T16:01:35.418Z,143.87
2018-02-08T16:04:04.713Z,134.57
2018-02-08T16:06:33.261Z,143.47
2018-02-08T16:09:02.558Z,131.97
2018-02-08T16:11:31.047Z,136.93
2018-02-08T16:13:59.461Z,139.43
2018-02-08T16:16:28.021Z,119.17
2018-02-08T16:18:56.512Z,108.57
2018-02-08T16:21:25.773Z,119.47
2018-02-08T16:23:54.112Z,115.70
2018-02-08T16:26:23.380Z,125.80
2018-02-08T16:28:52.071Z,123.03
2018-02-08T16:31:21.287Z,115.47
2018-02-08T16:33:49.660Z,119.13
2018-02-08T16:36:18.473Z,120.77
2018-02-08T16:38:47.295Z,109.67
2018-02-08T16:41:16.696Z,124.07
2018-02-08T16:43:45.020Z,110.60
2018-02-08T16:46:13.404Z,112.67
2018-02-08T16:48:41.762Z,117.63
2018-02-08T16:51:10.122Z,126.67
2018-02-08T16:53:38.456Z,122.87
2018-02-08T16:56:06.785Z,135.90
2018-02-08T16:58:35.117Z,133.07
2018-02-08T17:01:03.647Z,126.20
2018-02-08T17:03:32.424Z,131.40
2018-02-08T17:06:00.859Z,108.43
2018-02-08T17:08:29.180Z,115.93
2018-02-08T17:10:58.806Z,139.93
2018-02-08T17:13:27.160Z,119.27
2018-02-08T17:15:55.701Z,135.93
2018-02-08T17:18:24.036Z,146.60
2018-02-08T17:20:52.819Z,130.13
2018-02-08T17:23:21.178Z,158.47
2018-02-08T17:25:49.517Z,134.33
2018-02-08T17:28:20.655Z,164.73
2018-02-08T17:30:49.023Z,151.03
2018-02-08T17:33:17.391Z,153.87
2018-02-08T17:35:45.728Z,155.70
2018-02-08T17:38:14.056Z,168.67
2018-02-08T17:40:42.564Z,154.93
2018-02-08T17:43:11.854Z,144.60
2018-02-08T17:45:40.188Z,162.10
2018-02-08T17:48:08.517Z,164.27
2018-02-08T17:50:37.155Z,172.23
2018-02-08T17:53:05.765Z,156.50
2018-02-08T17:55:34.087Z,159.23
2018-02-08T17:58:03.229Z,164.90
2018-02-08T18:00:31.645Z,149.43
2018-02-08T18:03:00.820Z,150.60
2018-02-08T18:05:29.337Z,163.63
2018-02-08T18:07:58.541Z,155.20
2018-02-08T18:10:27.010Z,164.00
2018-02-08T18:12:55.477Z,145.23
2018-02-08T18:15:23.883Z,152.97
2018-02-08T18:17:52.280Z,139.80
2018-02-08T18:20:20.719Z,140.30
2018-02-08T18:22:49.045Z,118.50
2018-02-08T18:25:17.396Z,142.63
2018-02-08T18:27:45.749Z,149.20
2018-02-08T18:30:14.165Z,127.20
2018-02-08T18:32:42.510Z,128.33
2018-02-08T18:35:10.936Z,139.53
2018-02-08T18:37:39.257Z,129.07
2018-02-08T18:40:07.589Z,131.93
2018-02-08T18:42:35.994Z,150.27
2018-02-08T18:45:04.340Z,136.47
2018-02-08T18:47:32.754Z,113.10
2018-02-08T18:50:01.135Z,135.03
2018-02-08T18:52:29.461Z,121.27
2018-02-08T18:54:57.882Z,124.77
2018-02-08T18:57:26.517Z,118.50
2018-02-08T18:59:54.937Z,107.50
2018-02-08T19:02:23.331Z,109.83
2018-02-08T19:04:51.648Z,121.53
2018-02-08T19:07:20.017Z,131.90
2018-02-08T19:09:49.329Z,116.67
2018-02-08T19:12:17.721Z,106.10
2018-02-08T19:14:46.463Z,109.30
2018-02-08T19:17:14.941Z,110.13
2018-02-08T19:19:43.260Z,98.70
2018-02-08T19:22:11.634Z,106.03
2018-02-08T19:24:39.975Z,121.93
2018-02-08T19:27:08.351Z,108.70
2018-02-08T19:29:36.721Z,120.40
2018-02-08T19:32:05.140Z,116.60
2018-02-08T19:34:33.612Z,105.17
2018-02-08T19:37:02.610Z,117.43
2018-02-08T19:39:31.082Z,120.07
2018-02-08T19:41:59.438Z,119.73
2018-02-08T19:44:27.776Z,108.00
2018-02-08T19:46:56.248Z,118.73
2018-02-08T19:49:25.115Z,95.50
2018-02-08T19:51:53.463Z,105.77
2018-02-08T19:54:22.900Z,121.73
2018-02-08T19:56:51.339Z,100.67
2018-02-08T19:59:19.684Z,125.20
2018-02-08T20:01:48.024Z,109.80
2018-02-08T20:04:16.525Z,113.00
2018-02-08T20:06:44.908Z,110.97
2018-02-08T20:09:13.273Z,102.80
2018-02-08T20:11:41.717Z,123.37
2018-02-08T20:14:15.557Z,124.80
2018-02-08T20:16:43.927Z,122.20
2018-02-08T20:19:12.290Z,109.93
2018-02-08T20:21:40.632Z,101.80
2018-02-08T20:24:08.991Z,105.37
2018-02-08T20:26:37.337Z,120.97
2018-02-08T20:29:05.684Z,106.07
2018-02-08T20:31:33.999Z,113.90
2018-02-08T20:34:02.360Z,108.50
2018-02-08T20:36:30.712Z,106.90
2018-02-08T20:38:59.038Z,130.17
2018-02-08T20:44:18.931Z,121.97
2018-02-08T20:46:47.251Z,137.77
2018-02-08T20:49:15.587Z,123.53
2018-02-08T20:51:43.907Z,120.27
2018-02-08T20:54:12.244Z,110.83
2018-02-08T20:56:40.599Z,103.20
2018-02-08T20:59:08.941Z,127.87
2018-02-08T21:01:37.424Z,126.03
2018-02-08T21:04:05.822Z,128.47
2018-02-08T21:06:34.158Z,111.67
2018-02-08T21:09:02.528Z,123.57
2018-02-08T21:11:30.880Z,120.57
2018-02-08T21:13:59.247Z,143.30
2018-02-08T21:16:27.583Z,124.13
2018-02-08T21:18:55.928Z,135.43
2018-02-08T21:21:24.293Z,131.10
2018-02-08T21:23:52.613Z,144.83
2018-02-08T21:26:20.978Z,141.77
2018-02-08T21:28:49.305Z,151.80
2018-02-08T21:31:17.631Z,146.10
2018-02-08T21:33:45.971Z,161.07
2018-02-08T21:36:14.312Z,129.13
2018-02-08T21:38:42.656Z,127.77
2018-02-08T21:41:11.752Z,147.67
2018-02-08T21:43:40.277Z,121.93
2018-02-08T21:46:08.590Z,159.00
2018-02-08T21:48:36.968Z,155.70
2018-02-08T21:51:05.383Z,154.83
2018-02-08T21:53:33.755Z,173.43
2018-02-08T21:56:02.073Z,167.97
2018-02-08T21:58:30.458Z,170.17
2018-02-08T22:00:58.840Z,156.67
2018-02-08T22:03:27.201Z,160.37
2018-02-08T22:05:55.650Z,160.77
2018-02-08T22:08:23.992Z,150.77
2018-02-08T22:10:52.358Z,166.83
2018-02-08T22:13:20.722Z,161.60
2018-02-08T22:15:49.101Z,171.23
2018-02-08T22:18:17.543Z,167.67
2018-02-08T22:20:45.864Z,141.47
2018-02-08T22:23:14.234Z,159.60
2018-02-08T22:31:25.081Z,138.47
2018-02-08T22:33:53.442Z,171.23
2018-02-08T22:36:21.772Z,146.07
2018-02-08T22:38:50.113Z,174.40
2018-02-08T22:41:18.460Z,169.73
2018-02-08T22:43:46.811Z,169.67
2018-02-08T22:46:15.168Z,188.53
2018-02-08T22:48:43.491Z,180.77
2018-02-08T22:51:12.069Z,154.80
2018-02-08T22:53:41.217Z,161.17
2018-02-08T22:56:10.393Z,178.50
2018-02-08T22:58:38.772Z,182.70
2018-02-08T23:01:07.123Z,147.40
2018-02-08T23:03:35.467Z,152.03
2018-02-08T23:06:03.807Z,160.17
2018-02-08T23:08:32.159Z,172.40
2018-02-08T23:11:00.499Z,116.60
2018-02-08T23:13:28.856Z,176.80
2018-02-08T23:15:57.164Z,171.93
2018-02-08T23:18:25.516Z,188.53
2018-02-08T23:20:53.868Z,176.37
2018-02-08T23:23:22.256Z,167.63
2018-02-08T23:25:50.629Z,169.37
2018-02-08T23:28:18.965Z,166.67
2018-02-08T23:30:47.326Z,185.43
2018-02-08T23:33:15.643Z,179.93
2018-02-08T23:35:44.000Z,183.67
2018-02-08T23:38:12.360Z,168.93
2018-02-08T23:40:40.675Z,162.43
2018-02-08T23:43:09.047Z,153.63
2018-02-08T23:45:37.370Z,150.93
2018-02-08T23:48:05.728Z,166.93
2018-02-08T23:50:34.080Z,148.00
2018-02-08T23:53:02.409Z,161.93
2018-02-08T23:55:30.746Z,146.60
2018-02-08T23:57:59.070Z,160.63
